Terminal Aerodrome Forecast
Issued by NWS

Home | Current Version | Previous Version | Text Only | Print | Product List | Glossary On
Versions: 1 2 3 4 5 6 7 8 9 10 11 12 13
000
FTUS44 KLZK 210523
TAFADF
TAF
KADF 210523Z 2106/2206 VRB04KT P6SM SCT250 WS019/23040KT
     FM211400 20009KT P6SM BKN250 WS019/23040KT
     FM212200 31010G18KT P6SM SCT100 BKN250
     FM220100 33006KT P6SM SCT250=

USA.gov is the U.S. government's official web portal to all federal, state and local government web resources and services.